Time;durP1;ratioP1;P1;durP2;ratioP2;P2;SDS_P1;SDS_P2;PMS_P1;PMS_P2;Temp;Humidity;BMP_temperature;BMP_pressure;BME280_temperature;BME280_humidity;BME280_pressure;Samples;Min_cycle;Max_cycle;Signal;HPM_P1;HPM_P2
2022/05/27 00:00:00;;;;;;;3.33;1.70;;;13.90;99.90;;;;;;5034811;28;20194;-30
2022/05/27 00:02:26;;;;;;;3.13;2.30;;;13.90;99.90;;;;;;5033130;28;20210;-30
2022/05/27 00:04:52;;;;;;;2.63;2.00;;;13.90;99.90;;;;;;5033296;28;20185;-29
2022/05/27 00:07:18;;;;;;;3.60;2.50;;;13.80;99.90;;;;;;5033279;28;20209;-30
2022/05/27 00:09:44;;;;;;;2.97;2.33;;;13.80;99.90;;;;;;5033460;28;20290;-31
2022/05/27 00:12:10;;;;;;;3.37;2.00;;;13.70;99.90;;;;;;5033613;28;20300;-30
2022/05/27 00:14:35;;;;;;;2.17;1.97;;;13.70;99.90;;;;;;5033215;28;20645;-29
2022/05/27 00:17:01;;;;;;;2.10;1.90;;;13.70;99.90;;;;;;5016288;28;20189;-30
2022/05/27 00:19:27;;;;;;;2.60;2.00;;;13.70;99.90;;;;;;5034634;28;20653;-30
2022/05/27 00:21:53;;;;;;;4.63;1.87;;;13.70;99.90;;;;;;5016753;28;20207;-30
2022/05/27 00:24:19;;;;;;;2.97;2.10;;;13.70;99.90;;;;;;5016397;28;20195;-30
2022/05/27 00:26:45;;;;;;;2.90;1.90;;;13.60;99.90;;;;;;5033143;28;20213;-30
2022/05/27 00:29:10;;;;;;;2.63;2.00;;;13.60;99.90;;;;;;5032949;28;20208;-30
2022/05/27 00:31:36;;;;;;;2.20;2.00;;;13.60;99.90;;;;;;5016300;28;20179;-31
2022/05/27 00:34:02;;;;;;;1.80;1.70;;;13.60;99.90;;;;;;5032665;28;20311;-30
2022/05/27 00:36:28;;;;;;;2.10;1.90;;;13.50;99.90;;;;;;5032910;28;20174;-30
2022/05/27 00:38:54;;;;;;;2.70;2.13;;;13.50;99.90;;;;;;5032955;28;20203;-30
2022/05/27 00:41:20;;;;;;;5.10;2.00;;;13.50;99.90;;;;;;5033022;28;20183;-29
2022/05/27 00:43:46;;;;;;;2.47;2.00;;;13.50;99.90;;;;;;5032427;28;20196;-31
2022/05/27 00:46:20;;;;;;;2.50;2.30;;;13.40;99.90;;;;;;5033797;28;20210;-31
2022/05/27 00:48:50;;;;;;;3.10;2.10;;;13.40;99.90;;;;;;5016142;28;20200;-31
2022/05/27 00:51:20;;;;;;;2.57;1.80;;;13.40;99.90;;;;;;5032738;28;20528;-30
2022/05/27 00:54:01;;;;;;;2.90;1.73;;;13.40;99.90;;;;;;5034018;28;20468;-30
2022/05/27 00:56:31;;;;;;;2.23;1.90;;;13.40;99.90;;;;;;5016230;28;20253;-31
2022/05/27 00:59:03;;;;;;;2.50;1.70;;;13.30;99.90;;;;;;5032420;28;20214;-30
2022/05/27 01:01:29;;;;;;;1.90;1.70;;;13.30;99.90;;;;;;5032512;28;20182;-30
2022/05/27 01:04:01;;;;;;;2.57;2.07;;;13.30;99.90;;;;;;5015917;28;20245;-31
2022/05/27 01:06:27;;;;;;;1.93;1.83;;;13.30;99.90;;;;;;5031343;28;20579;-29
2022/05/27 01:08:54;;;;;;;4.50;2.00;;;13.30;99.90;;;;;;5033614;28;20648;-30
2022/05/27 01:11:38;;;;;;;2.07;1.83;;;13.40;99.90;;;;;;5032037;28;20213;-30
2022/05/27 01:14:19;;;;;;;1.90;1.80;;;13.40;99.90;;;;;;5031975;28;20180;-30
2022/05/27 01:16:57;;;;;;;2.13;1.90;;;13.40;99.90;;;;;;5015713;28;20189;-30
2022/05/27 01:22:45;;;;;;;2.10;1.90;;;13.40;99.90;;;;;;5032167;28;20189;-30
2022/05/27 01:25:20;;;;;;;2.53;1.83;;;13.40;99.90;;;;;;5031740;28;20203;-28
2022/05/27 01:28:03;;;;;;;2.17;2.00;;;13.40;99.90;;;;;;5015062;28;20218;-31
2022/05/27 01:31:00;;;;;;;2.50;2.00;;;13.30;99.90;;;;;;5015474;28;20177;-31
2022/05/27 01:33:39;;;;;;;3.40;1.70;;;13.30;99.90;;;;;;5022461;28;20235;-32
2022/05/27 01:36:36;;;;;;;3.10;1.70;;;13.30;99.90;;;;;;5033001;28;20610;-29
2022/05/27 01:39:20;;;;;;;1.90;1.80;;;13.30;99.90;;;;;;5015150;28;20247;-29
2022/05/27 01:42:14;;;;;;;2.73;1.77;;;13.30;99.90;;;;;;5031349;28;20189;-30
2022/05/27 01:44:53;;;;;;;2.53;1.90;;;13.20;99.90;;;;;;5031134;28;20206;-30
2022/05/27 01:47:25;;;;;;;2.27;2.00;;;13.20;99.90;;;;;;5033398;28;20272;-29
2022/05/27 01:50:07;;;;;;;3.30;1.90;;;13.20;99.90;;;;;;5034567;28;20196;-29
2022/05/27 01:52:44;;;;;;;2.30;2.10;;;13.20;99.90;;;;;;5033551;28;20219;-29
2022/05/27 01:55:40;;;;;;;2.23;1.93;;;13.10;99.90;;;;;;5041766;28;20182;-29
2022/05/27 01:58:31;;;;;;;2.00;1.90;;;13.10;99.90;;;;;;5054460;28;20164;-29
2022/05/27 02:00:57;;;;;;;1.70;1.60;;;13.20;99.90;;;;;;5070449;28;20172;-30
2022/05/27 02:04:04;;;;;;;1.87;1.77;;;13.20;99.90;;;;;;5070148;28;20187;-29
2022/05/27 02:06:36;;;;;;;2.10;1.90;;;13.20;99.90;;;;;;5048429;28;20292;-30
2022/05/27 02:09:14;;;;;;;2.23;1.90;;;13.20;99.90;;;;;;5054357;28;20196;-29
2022/05/27 02:11:42;;;;;;;2.87;1.70;;;13.20;99.90;;;;;;5052880;28;20175;-29
2022/05/27 02:14:21;;;;;;;2.00;1.80;;;13.20;99.90;;;;;;5053119;28;20180;-30
2022/05/27 02:17:11;;;;;;;1.87;1.73;;;13.20;99.90;;;;;;5051803;28;20266;-29
2022/05/27 02:19:43;;;;;;;4.03;2.00;;;13.30;99.90;;;;;;5052902;28;20215;-29
2022/05/27 02:22:20;;;;;;;2.50;2.00;;;13.20;99.90;;;;;;5052894;28;20173;-30
2022/05/27 02:24:52;;;;;;;2.10;1.80;;;13.20;99.90;;;;;;5048715;28;20185;-29
2022/05/27 02:27:25;;;;;;;1.70;1.60;;;13.10;99.90;;;;;;5032635;28;20214;-29
2022/05/27 02:29:54;;;;;;;2.70;2.00;;;13.10;99.90;;;;;;5016262;28;20210;-30
2022/05/27 02:32:36;;;;;;;2.00;1.90;;;13.10;99.90;;;;;;5032895;28;20180;-30
2022/05/27 02:35:09;;;;;;;2.57;1.80;;;13.00;99.90;;;;;;5032454;28;20161;-29
2022/05/27 02:37:37;;;;;;;2.10;1.90;;;12.90;99.90;;;;;;5016042;28;20192;-29
2022/05/27 02:40:08;;;;;;;2.50;2.03;;;12.90;99.90;;;;;;5015852;28;20199;-31
2022/05/27 02:42:46;;;;;;;1.87;1.70;;;12.90;99.90;;;;;;5032343;28;20181;-29
2022/05/27 02:45:38;;;;;;;2.10;1.90;;;12.90;99.90;;;;;;5031821;28;20186;-29
2022/05/27 02:48:47;;;;;;;4.30;1.90;;;12.90;99.90;;;;;;5015139;28;20204;-29
2022/05/27 02:51:23;;;;;;;2.20;2.00;;;12.90;99.90;;;;;;5033591;28;20152;-30
2022/05/27 02:54:03;;;;;;;4.50;1.70;;;12.90;99.90;;;;;;5031896;28;20268;-30
2022/05/27 02:57:10;;;;;;;1.73;1.63;;;12.80;99.90;;;;;;5012835;28;20186;-30
2022/05/27 02:59:37;;;;;;;1.87;1.77;;;12.70;99.90;;;;;;4934545;29;20208;-29
2022/05/27 03:02:09;;;;;;;2.27;1.80;;;12.60;99.90;;;;;;5000859;28;20201;-30
2022/05/27 03:04:38;;;;;;;3.73;1.90;;;12.40;99.90;;;;;;5013668;28;20179;-29
2022/05/27 03:07:30;;;;;;;2.20;2.00;;;12.40;99.90;;;;;;5015466;28;20201;-29
2022/05/27 03:10:24;;;;;;;2.10;1.80;;;12.30;99.90;;;;;;5013857;28;20222;-30
2022/05/27 03:13:20;;;;;;;1.80;1.70;;;12.30;99.90;;;;;;5012527;28;20176;-31
2022/05/27 03:16:07;;;;;;;2.53;1.87;;;12.30;99.90;;;;;;4979422;28;20277;-31
2022/05/27 03:18:42;;;;;;;2.53;1.70;;;12.30;99.90;;;;;;4996963;28;20204;-30
2022/05/27 03:21:34;;;;;;;2.63;2.03;;;12.30;99.90;;;;;;5021973;28;20292;-30
2022/05/27 03:24:32;;;;;;;3.50;1.80;;;12.30;99.90;;;;;;5043596;28;20255;-30
2022/05/27 03:26:58;;;;;;;1.90;1.70;;;12.30;99.90;;;;;;5049674;28;20207;-30
2022/05/27 03:29:30;;;;;;;2.87;1.70;;;12.30;99.90;;;;;;5059107;28;20201;-31
2022/05/27 03:32:28;;;;;;;2.90;2.10;;;12.30;99.90;;;;;;5042356;28;20181;-30
2022/05/27 03:35:00;;;;;;;2.00;1.70;;;12.20;99.90;;;;;;4982596;28;20236;-31
2022/05/27 03:37:35;;;;;;;3.30;1.90;;;12.20;99.90;;;;;;5043903;28;20188;-29
2022/05/27 03:40:12;;;;;;;3.37;1.80;;;12.20;99.90;;;;;;5056973;28;20298;-29
2022/05/27 03:42:41;;;;;;;5.00;2.03;;;12.30;99.90;;;;;;5041792;28;20182;-30
2022/05/27 03:45:17;;;;;;;3.33;2.07;;;12.20;99.90;;;;;;5027522;28;20200;-29
2022/05/27 03:47:44;;;;;;;3.20;1.90;;;12.30;99.90;;;;;;5063308;28;20207;-29
2022/05/27 03:50:15;;;;;;;2.50;1.63;;;12.30;99.90;;;;;;5061666;28;20191;-29
2022/05/27 03:52:44;;;;;;;3.43;1.90;;;12.40;99.90;;;;;;5057385;28;20171;-29
2022/05/27 03:55:14;;;;;;;2.40;1.90;;;12.50;99.90;;;;;;5041854;28;20237;-30
2022/05/27 03:57:40;;;;;;;1.90;1.80;;;12.50;99.90;;;;;;5066530;28;20208;-29
2022/05/27 04:00:07;;;;;;;3.07;1.80;;;12.50;99.90;;;;;;5051129;28;20216;-29
2022/05/27 04:02:38;;;;;;;2.10;1.90;;;12.60;99.90;;;;;;5051634;28;20207;-29
2022/05/27 04:05:05;;;;;;;2.50;2.30;;;12.50;99.90;;;;;;5051314;28;20185;-29
2022/05/27 04:07:31;;;;;;;2.37;2.17;;;12.40;99.90;;;;;;5068278;28;20206;-29
2022/05/27 04:09:57;;;;;;;3.63;2.10;;;12.20;99.90;;;;;;5052511;28;20271;-29
2022/05/27 04:12:23;;;;;;;4.17;2.27;;;12.20;99.90;;;;;;5052670;28;20269;-29
2022/05/27 04:14:50;;;;;;;4.20;2.10;;;12.10;99.90;;;;;;5068102;28;20181;-29
2022/05/27 04:17:32;;;;;;;3.23;2.00;;;12.10;99.90;;;;;;5052364;28;20256;-29
2022/05/27 04:20:05;;;;;;;2.37;2.00;;;12.10;99.90;;;;;;5051207;28;20275;-30
2022/05/27 04:22:31;;;;;;;5.53;2.50;;;12.10;99.90;;;;;;5051372;28;20179;-29
2022/05/27 04:24:58;;;;;;;2.23;2.03;;;12.10;99.90;;;;;;5051136;28;20185;-31
2022/05/27 04:27:26;;;;;;;2.13;1.83;;;12.20;99.90;;;;;;5051543;28;20199;-30
2022/05/27 04:29:52;;;;;;;2.10;1.90;;;12.30;99.90;;;;;;5051207;28;20696;-29
2022/05/27 04:32:21;;;;;;;4.53;2.20;;;12.30;99.90;;;;;;5067721;28;20197;-29
2022/05/27 04:34:48;;;;;;;2.10;1.90;;;12.40;99.90;;;;;;5051988;28;20262;-31
2022/05/27 04:37:15;;;;;;;2.93;2.17;;;12.50;99.90;;;;;;5052388;28;20200;-29
2022/05/27 04:39:41;;;;;;;4.13;2.00;;;12.60;99.90;;;;;;5067908;28;20206;-29
2022/05/27 04:42:07;;;;;;;2.33;2.00;;;12.60;99.90;;;;;;5054765;28;20191;-29
2022/05/27 04:44:33;;;;;;;3.00;2.13;;;12.70;99.90;;;;;;5054582;28;20197;-30
2022/05/27 04:46:59;;;;;;;2.60;2.30;;;12.80;99.90;;;;;;5071494;28;20210;-29
2022/05/27 04:52:10;;;;;;;3.97;2.37;;;12.80;99.90;;;;;;5055953;28;20162;-29
2022/05/27 04:54:35;;;;;;;4.00;2.10;;;12.90;99.90;;;;;;5070765;28;20270;-29
2022/05/27 04:57:02;;;;;;;2.77;1.90;;;12.90;99.90;;;;;;5055629;28;20260;-30
2022/05/27 04:59:28;;;;;;;3.00;1.90;;;13.00;99.90;;;;;;5070438;28;20272;-29
2022/05/27 05:01:54;;;;;;;2.13;1.93;;;13.10;99.90;;;;;;5054459;28;20259;-30
2022/05/27 05:04:19;;;;;;;2.67;2.00;;;13.10;99.90;;;;;;5054205;28;20181;-29
2022/05/27 05:06:46;;;;;;;3.07;1.97;;;13.10;99.90;;;;;;5054046;28;20542;-31
2022/05/27 05:09:11;;;;;;;3.00;2.00;;;13.10;99.90;;;;;;5070637;28;20203;-31
2022/05/27 05:11:38;;;;;;;3.20;2.40;;;13.20;99.90;;;;;;5054422;28;20178;-30
2022/05/27 05:14:04;;;;;;;3.67;1.83;;;13.20;99.90;;;;;;5070532;28;20798;-30
2022/05/27 05:16:30;;;;;;;1.97;1.80;;;13.30;99.90;;;;;;5054316;28;20271;-30
2022/05/27 05:18:56;;;;;;;3.97;2.33;;;13.40;99.90;;;;;;5055299;28;20250;-30
2022/05/27 05:21:22;;;;;;;3.67;2.03;;;13.50;99.90;;;;;;5055223;28;20177;-29
2022/05/27 05:23:47;;;;;;;2.67;2.00;;;13.60;99.90;;;;;;5053883;28;20255;-29
2022/05/27 05:26:13;;;;;;;4.63;1.97;;;13.70;99.90;;;;;;5037654;28;20628;-30
2022/05/27 05:28:39;;;;;;;3.77;2.10;;;13.80;99.90;;;;;;5017573;28;20210;-29
2022/05/27 05:31:06;;;;;;;4.27;2.13;;;13.90;99.90;;;;;;5033853;28;20173;-29
2022/05/27 05:33:33;;;;;;;1.97;1.83;;;14.00;99.90;;;;;;5034057;28;20185;-29
2022/05/27 05:35:59;;;;;;;3.63;2.03;;;14.10;99.90;;;;;;5033537;28;20246;-30
2022/05/27 05:38:26;;;;;;;5.10;2.20;;;14.20;99.90;;;;;;5017140;28;20412;-29
2022/05/27 05:40:52;;;;;;;3.17;2.37;;;14.20;99.90;;;;;;5034875;28;20556;-29
2022/05/27 05:43:18;;;;;;;3.93;2.73;;;14.40;99.90;;;;;;5033353;28;20186;-31
2022/05/27 05:45:44;;;;;;;4.07;2.33;;;14.40;99.90;;;;;;5016841;28;20185;-29
2022/05/27 05:48:09;;;;;;;3.23;2.10;;;14.50;99.90;;;;;;5016993;28;20209;-29
2022/05/27 05:50:35;;;;;;;2.43;2.20;;;14.60;99.90;;;;;;5033546;28;20181;-29
2022/05/27 05:53:01;;;;;;;2.20;2.00;;;14.60;99.90;;;;;;5034151;28;20312;-30
2022/05/27 05:55:27;;;;;;;3.83;1.97;;;14.70;99.90;;;;;;5022536;28;20183;-29
2022/05/27 05:57:53;;;;;;;3.63;2.07;;;14.70;99.90;;;;;;5014903;28;20171;-29
2022/05/27 06:00:23;;;;;;;2.40;2.20;;;14.70;99.90;;;;;;5013657;28;20267;-30
2022/05/27 06:02:49;;;;;;;2.40;2.00;;;14.80;99.90;;;;;;4997430;28;20617;-30
2022/05/27 06:05:15;;;;;;;2.83;2.10;;;14.80;99.90;;;;;;5014533;28;20262;-30
2022/05/27 06:07:42;;;;;;;5.40;2.53;;;14.80;99.90;;;;;;4997045;28;20219;-30
2022/05/27 06:10:10;;;;;;;2.53;2.33;;;14.90;99.90;;;;;;4997362;28;20200;-29
2022/05/27 06:12:37;;;;;;;5.83;2.20;;;15.00;99.90;;;;;;5013491;28;20171;-30
2022/05/27 06:15:07;;;;;;;3.07;2.37;;;15.00;99.90;;;;;;4996806;28;20175;-29
2022/05/27 06:17:33;;;;;;;3.77;2.50;;;15.10;99.90;;;;;;5033416;28;20171;-30
2022/05/27 06:20:00;;;;;;;3.27;2.50;;;15.10;99.90;;;;;;5044399;28;20194;-30
2022/05/27 06:22:26;;;;;;;3.03;2.30;;;15.20;99.90;;;;;;5068905;28;20189;-30
2022/05/27 06:24:52;;;;;;;3.43;2.00;;;15.20;99.90;;;;;;5050911;28;20201;-30
2022/05/27 06:27:18;;;;;;;4.20;2.10;;;15.30;99.90;;;;;;5016283;28;20207;-30
2022/05/27 06:35:13;;;;;;;2.33;1.90;;;15.40;99.90;;;;;;5038867;28;20250;-30
2022/05/27 06:37:39;;;;;;;2.70;1.87;;;15.50;99.90;;;;;;5058776;28;20181;-29
2022/05/27 06:40:07;;;;;;;3.73;2.30;;;15.50;99.90;;;;;;5050383;28;20205;-29
2022/05/27 06:42:33;;;;;;;4.13;2.00;;;15.60;99.90;;;;;;5051786;28;20281;-30
2022/05/27 06:44:59;;;;;;;3.37;2.17;;;15.60;99.90;;;;;;5050027;28;20270;-30
2022/05/27 06:47:25;;;;;;;4.13;1.93;;;15.70;99.90;;;;;;5050372;28;20284;-29
2022/05/27 06:49:51;;;;;;;2.97;2.03;;;15.70;99.90;;;;;;5050210;28;20206;-29
2022/05/27 06:52:18;;;;;;;4.07;2.20;;;15.80;99.90;;;;;;5051708;28;20180;-31
2022/05/27 06:54:43;;;;;;;2.57;2.30;;;15.90;99.90;;;;;;5044943;28;20269;-30
2022/05/27 06:57:10;;;;;;;3.97;2.20;;;15.90;99.90;;;;;;5031321;28;20273;-29
2022/05/27 06:59:36;;;;;;;2.80;2.23;;;16.00;99.90;;;;;;5031937;28;20205;-30
2022/05/27 07:02:03;;;;;;;6.20;2.40;;;16.10;99.90;;;;;;5015937;28;20178;-30
2022/05/27 07:04:29;;;;;;;2.60;1.93;;;16.20;99.90;;;;;;5042865;28;20178;-31
2022/05/27 07:06:57;;;;;;;2.87;1.93;;;16.20;99.90;;;;;;5050519;28;20193;-30
2022/05/27 07:09:24;;;;;;;2.40;2.00;;;16.20;99.90;;;;;;5050891;28;20206;-31
2022/05/27 07:11:53;;;;;;;2.10;1.93;;;16.20;99.90;;;;;;5032924;28;20230;-30
2022/05/27 07:14:19;;;;;;;2.33;1.70;;;16.30;99.90;;;;;;5049527;28;20190;-31
2022/05/27 07:16:46;;;;;;;3.90;2.07;;;16.50;99.90;;;;;;5051315;28;20247;-31
2022/05/27 07:19:13;;;;;;;3.37;1.93;;;16.80;99.90;;;;;;5052531;28;20204;-30
2022/05/27 07:21:41;;;;;;;3.37;2.03;;;16.90;99.90;;;;;;5052884;28;20167;-30
2022/05/27 07:24:11;;;;;;;2.57;1.67;;;17.10;99.90;;;;;;5051274;28;20182;-29
2022/05/27 07:26:38;;;;;;;6.30;1.80;;;17.20;99.90;;;;;;5011825;28;20211;-30
2022/05/27 07:29:08;;;;;;;2.77;2.07;;;17.20;99.90;;;;;;5028094;28;20218;-30
2022/05/27 07:31:36;;;;;;;2.00;1.87;;;17.30;99.90;;;;;;5049359;28;20193;-29
2022/05/27 07:34:03;;;;;;;3.77;1.77;;;17.30;99.90;;;;;;5031020;28;20316;-30
2022/05/27 07:36:28;;;;;;;2.43;1.80;;;17.20;99.90;;;;;;5031616;28;20202;-30
2022/05/27 07:38:54;;;;;;;2.83;1.60;;;17.20;99.90;;;;;;5030475;28;20280;-31
2022/05/27 07:41:21;;;;;;;3.43;1.80;;;17.10;99.90;;;;;;5013895;28;20195;-31
2022/05/27 07:43:47;;;;;;;3.50;2.10;;;17.00;99.90;;;;;;5032745;28;20702;-30
2022/05/27 07:46:15;;;;;;;2.30;2.00;;;16.90;99.90;;;;;;5048351;28;20183;-29
2022/05/27 07:48:44;;;;;;;5.33;1.90;;;16.90;99.90;;;;;;5047645;28;20209;-30
2022/05/27 07:51:11;;;;;;;3.27;1.90;;;16.90;99.90;;;;;;5045913;28;20178;-31
2022/05/27 07:53:38;;;;;;;2.63;1.83;;;16.90;99.90;;;;;;5029674;28;20183;-30
2022/05/27 07:56:09;;;;;;;2.93;1.90;;;16.90;99.90;;;;;;5028968;28;20298;-31
2022/05/27 07:58:35;;;;;;;2.07;1.97;;;16.90;99.90;;;;;;5030829;28;20197;-30
2022/05/27 08:01:02;;;;;;;3.23;1.70;;;16.90;99.90;;;;;;5029467;28;20264;-30
2022/05/27 08:03:29;;;;;;;4.30;2.10;;;16.90;99.90;;;;;;5011015;28;20188;-30
2022/05/27 08:05:58;;;;;;;4.13;2.10;;;16.90;99.90;;;;;;5045247;28;20178;-30
2022/05/27 08:08:23;;;;;;;2.23;2.00;;;16.90;99.90;;;;;;5029015;28;20220;-30
2022/05/27 08:10:50;;;;;;;2.13;1.70;;;16.80;99.90;;;;;;5045525;28;20187;-31
2022/05/27 08:13:16;;;;;;;2.40;2.00;;;16.80;99.90;;;;;;5047933;28;20190;-30
2022/05/27 08:15:42;;;;;;;2.70;2.00;;;16.70;99.90;;;;;;5049266;28;20230;-30
2022/05/27 08:18:09;;;;;;;2.37;1.83;;;16.70;99.90;;;;;;5034974;28;20191;-31
2022/05/27 08:20:37;;;;;;;2.77;1.83;;;16.70;99.90;;;;;;5034327;28;20258;-30
2022/05/27 08:23:03;;;;;;;2.33;2.03;;;16.60;99.90;;;;;;5049774;28;20186;-30
2022/05/27 08:25:30;;;;;;;3.10;2.10;;;16.60;99.90;;;;;;5033760;28;20201;-30
2022/05/27 08:27:56;;;;;;;4.17;2.07;;;16.60;99.90;;;;;;5032926;28;20199;-31
2022/05/27 08:30:29;;;;;;;2.53;2.07;;;16.60;99.90;;;;;;5016615;28;20174;-30
2022/05/27 08:32:56;;;;;;;3.30;2.13;;;16.60;99.90;;;;;;5032871;28;20179;-31
2022/05/27 08:38:10;;;;;;;4.20;2.23;;;16.60;99.90;;;;;;5034397;28;20178;-30
2022/05/27 08:40:57;;;;;;;4.40;2.10;;;16.70;99.90;;;;;;5032727;28;20185;-30
2022/05/27 08:43:50;;;;;;;3.17;2.10;;;16.60;99.90;;;;;;5034001;28;20178;-31
2022/05/27 08:46:19;;;;;;;2.47;1.83;;;16.60;99.90;;;;;;5032896;28;20191;-30
2022/05/27 08:48:49;;;;;;;2.13;1.90;;;16.60;99.90;;;;;;5016282;28;20218;-30
2022/05/27 08:51:21;;;;;;;3.37;2.13;;;16.60;99.90;;;;;;5032608;28;20183;-30
2022/05/27 08:54:06;;;;;;;2.40;2.13;;;16.60;99.90;;;;;;5016049;28;20189;-31
2022/05/27 08:59:37;;;;;;;2.93;1.90;;;16.70;99.90;;;;;;5032533;28;20233;-30
2022/05/27 09:02:08;;;;;;;2.53;2.17;;;16.80;99.90;;;;;;5034062;28;20193;-30
2022/05/27 09:04:43;;;;;;;4.10;2.00;;;16.80;99.90;;;;;;5016039;28;20187;-30
2022/05/27 09:07:34;;;;;;;3.07;2.20;;;16.90;99.90;;;;;;5016037;28;20217;-31
2022/05/27 09:10:03;;;;;;;2.87;2.20;;;16.90;99.90;;;;;;5015751;28;20213;-31
2022/05/27 09:12:56;;;;;;;2.47;2.00;;;17.00;99.90;;;;;;5015729;28;20184;-31
2022/05/27 09:15:41;;;;;;;3.00;2.10;;;17.00;99.90;;;;;;5015571;28;20183;-31
2022/05/27 09:18:23;;;;;;;3.93;2.23;;;17.20;99.90;;;;;;5015465;28;20245;-30
2022/05/27 09:20:56;;;;;;;3.43;2.13;;;17.30;99.90;;;;;;5015366;28;20209;-31
2022/05/27 09:23:49;;;;;;;3.60;1.77;;;17.40;99.90;;;;;;5032189;28;20205;-31
2022/05/27 09:26:31;;;;;;;3.83;1.90;;;17.50;99.90;;;;;;5028134;28;20282;-31
2022/05/27 09:29:15;;;;;;;4.60;1.90;;;17.40;99.90;;;;;;5033249;28;20201;-31
2022/05/27 09:32:08;;;;;;;3.80;2.10;;;17.50;99.90;;;;;;5031753;28;20213;-31
2022/05/27 09:34:39;;;;;;;2.80;1.67;;;17.50;99.90;;;;;;5015418;28;20206;-31
2022/05/27 09:37:08;;;;;;;2.30;1.80;;;17.40;99.90;;;;;;5048477;28;20190;-31
2022/05/27 09:39:35;;;;;;;3.97;2.00;;;17.50;99.90;;;;;;5032721;28;20198;-31
2022/05/27 09:42:14;;;;;;;3.47;1.70;;;17.50;99.90;;;;;;5033178;28;20182;-30
2022/05/27 09:44:48;;;;;;;4.43;1.97;;;17.60;99.90;;;;;;5031482;28;20200;-31
2022/05/27 09:47:16;;;;;;;3.20;2.10;;;17.70;99.90;;;;;;5032917;28;20210;-31
2022/05/27 09:49:48;;;;;;;3.88;2.00;;;17.60;99.90;;;;;;5032979;28;20191;-31
2022/05/27 09:52:14;;;;;;;4.10;1.60;;;17.70;99.90;;;;;;5031641;28;20182;-31
2022/05/27 09:54:59;;;;;;;1.85;1.75;;;17.80;99.90;;;;;;5047651;28;20182;-31
2022/05/27 09:57:28;;;;;;;2.65;1.98;;;17.90;99.90;;;;;;5032672;28;20175;-31
2022/05/27 09:59:57;;;;;;;3.83;1.98;;;18.00;99.90;;;;;;5047835;28;20210;-30
2022/05/27 10:02:26;;;;;;;2.35;1.75;;;18.00;99.90;;;;;;5047957;28;20186;-32
2022/05/27 10:05:06;;;;;;;3.47;2.05;;;18.10;99.90;;;;;;5031002;28;20183;-31
2022/05/27 10:07:45;;;;;;;2.33;2.00;;;18.10;99.90;;;;;;5032506;28;20206;-31
2022/05/27 10:10:34;;;;;;;2.90;1.75;;;18.00;99.90;;;;;;5031261;28;20198;-31
2022/05/27 10:13:30;;;;;;;6.35;1.83;;;18.00;99.90;;;;;;5047479;28;20193;-32
2022/05/27 10:16:23;;;;;;;2.28;1.80;;;18.10;99.90;;;;;;5031302;28;20290;-31
2022/05/27 10:19:06;;;;;;;2.75;1.83;;;18.20;99.90;;;;;;5031043;28;20274;-31
2022/05/27 10:21:34;;;;;;;3.25;1.90;;;18.30;99.90;;;;;;5031071;28;20174;-31
2022/05/27 10:24:16;;;;;;;3.42;2.00;;;18.30;99.90;;;;;;5032235;28;20261;-31
2022/05/27 10:26:44;;;;;;;3.63;1.63;;;18.40;99.90;;;;;;5047616;28;20234;-31
2022/05/27 10:29:15;;;;;;;2.90;1.80;;;18.40;99.90;;;;;;5014370;28;20211;-31
2022/05/27 10:31:53;;;;;;;2.42;1.63;;;18.50;99.90;;;;;;5031978;28;20670;-31
2022/05/27 10:34:46;;;;;;;2.67;1.52;;;18.80;99.90;;;;;;5047010;28;20261;-31
2022/05/27 10:37:28;;;;;;;1.90;1.60;;;18.80;99.90;;;;;;5012563;28;20550;-32
2022/05/27 10:40:03;;;;;;;2.97;1.52;;;19.00;99.90;;;;;;5013945;28;20199;-31
2022/05/27 10:43:16;;;;;;;2.13;1.38;;;19.30;99.90;;;;;;5030768;28;20191;-32
2022/05/27 10:45:47;;;;;;;1.80;1.42;;;19.30;99.90;;;;;;5012240;28;20213;-32
2022/05/27 10:48:27;;;;;;;3.70;1.40;;;19.40;99.90;;;;;;5046805;28;20294;-32
2022/05/27 10:51:00;;;;;;;2.47;1.50;;;19.40;99.90;;;;;;5030257;28;20186;-32
2022/05/27 10:53:50;;;;;;;2.85;1.20;;;19.60;99.90;;;;;;5031668;28;20175;-31
2022/05/27 10:56:39;;;;;;;1.42;1.20;;;20.00;99.90;;;;;;5030348;28;20194;-31
2022/05/27 11:02:17;;;;;;;2.20;1.30;;;20.40;99.90;;;;;;5031745;28;20167;-32
2022/05/27 11:05:07;;;;;;;2.60;1.25;;;20.50;99.90;;;;;;5031817;28;20171;-32
2022/05/27 11:07:46;;;;;;;2.63;1.38;;;20.50;99.90;;;;;;5030290;28;20226;-31
2022/05/27 11:10:36;;;;;;;1.30;1.20;;;20.40;99.90;;;;;;5030489;28;20199;-32
2022/05/27 11:16:22;;;;;;;2.67;1.48;;;20.20;99.90;;;;;;5046299;28;20182;-32
2022/05/27 11:19:13;;;;;;;3.03;1.33;;;20.30;99.90;;;;;;5046573;28;20292;-31
2022/05/27 11:21:51;;;;;;;1.67;1.20;;;20.70;99.90;;;;;;5045961;28;20277;-31
2022/05/27 11:24:41;;;;;;;2.38;1.27;;;20.90;99.90;;;;;;5029587;28;20178;-31
2022/05/27 11:27:18;;;;;;;1.60;1.20;;;21.20;99.90;;;;;;5031190;28;20297;-32
2022/05/27 11:30:04;;;;;;;1.67;1.10;;;21.30;99.90;;;;;;5029726;28;20190;-32
2022/05/27 11:32:39;;;;;;;1.90;1.42;;;21.30;99.90;;;;;;5029915;28;20202;-32
2022/05/27 11:35:23;;;;;;;1.33;1.23;;;21.40;99.90;;;;;;5028920;28;20273;-32
2022/05/27 11:38:20;;;;;;;2.75;1.30;;;21.50;99.90;;;;;;5029570;28;20183;-32
2022/05/27 11:41:09;;;;;;;2.00;1.33;;;21.30;99.90;;;;;;5029564;28;20178;-31
2022/05/27 11:43:43;;;;;;;3.08;1.30;;;21.40;99.90;;;;;;5013072;28;20265;-31
2022/05/27 11:46:22;;;;;;;1.45;1.25;;;21.30;99.90;;;;;;5029516;28;20177;-32
2022/05/27 11:49:06;;;;;;;2.80;1.35;;;21.30;99.90;;;;;;5029245;28;20691;-32
2022/05/27 11:51:57;;;;;;;1.85;1.13;;;21.70;99.90;;;;;;5029285;28;20235;-32
2022/05/27 11:55:01;;;;;;;1.75;1.40;;;21.80;99.90;;;;;;5030645;28;20181;-31
2022/05/27 11:57:43;;;;;;;5.47;1.30;;;21.60;99.90;;;;;;5046271;28;20181;-32
2022/05/27 12:00:16;;;;;;;1.48;1.10;;;21.30;99.90;;;;;;5012627;28;20205;-31
2022/05/27 12:02:53;;;;;;;1.52;1.30;;;20.80;99.90;;;;;;5013042;28;20185;-31
2022/05/27 12:05:34;;;;;;;2.72;1.25;;;20.70;99.90;;;;;;5029288;28;20205;-31
2022/05/27 12:08:24;;;;;;;2.10;1.50;;;20.30;99.90;;;;;;5031010;28;20206;-31
2022/05/27 12:10:59;;;;;;;2.40;1.38;;;20.10;99.90;;;;;;5013180;28;20186;-33
2022/05/27 12:13:37;;;;;;;4.55;1.65;;;20.10;99.90;;;;;;5029283;28;20769;-32
2022/05/27 12:16:06;;;;;;;2.15;1.48;;;20.10;99.90;;;;;;5029307;28;20184;-32
2022/05/27 12:18:42;;;;;;;2.83;1.52;;;20.00;99.90;;;;;;5012739;28;20213;-31
2022/05/27 12:21:12;;;;;;;1.40;1.30;;;19.90;99.90;;;;;;5029303;28;20235;-32
2022/05/27 12:23:44;;;;;;;3.17;1.40;;;19.70;99.90;;;;;;5030637;28;20189;-32
2022/05/27 12:26:10;;;;;;;1.60;1.35;;;19.80;99.90;;;;;;5012471;28;20197;-31
2022/05/27 12:28:41;;;;;;;2.20;1.25;;;19.70;99.90;;;;;;5030310;28;20241;-32
2022/05/27 12:31:09;;;;;;;1.45;1.30;;;19.60;99.90;;;;;;5030496;28;20174;-31
2022/05/27 12:33:37;;;;;;;2.95;1.50;;;19.60;99.90;;;;;;5012689;28;20175;-32
2022/05/27 12:36:19;;;;;;;2.85;1.40;;;19.60;99.90;;;;;;5028879;28;20205;-31
2022/05/27 12:38:47;;;;;;;2.33;1.50;;;19.80;99.90;;;;;;5028878;28;20195;-31
2022/05/27 12:41:30;;;;;;;3.55;1.30;;;19.90;99.90;;;;;;5030301;28;20179;-31
2022/05/27 12:44:02;;;;;;;2.47;1.50;;;20.00;99.90;;;;;;5029070;28;20327;-32
2022/05/27 12:46:45;;;;;;;1.30;1.20;;;20.20;99.90;;;;;;5029063;28;20313;-31
2022/05/27 12:49:34;;;;;;;2.08;1.45;;;20.40;99.90;;;;;;5028934;28;20195;-31
2022/05/27 12:52:03;;;;;;;2.15;1.20;;;20.50;99.90;;;;;;5030298;28;20175;-31
2022/05/27 12:54:48;;;;;;;1.40;1.25;;;20.40;99.90;;;;;;5030180;28;20189;-32
2022/05/27 13:03:37;;;;;;;1.98;1.17;;;20.50;99.90;;;;;;5031485;28;20186;-32
2022/05/27 13:06:14;;;;;;;1.33;1.10;;;20.40;99.90;;;;;;5032075;28;20182;-31
2022/05/27 13:08:50;;;;;;;2.45;1.30;;;20.40;99.90;;;;;;5033502;28;20202;-32
2022/05/27 13:11:34;;;;;;;1.30;1.20;;;20.30;99.90;;;;;;5032505;28;20265;-32
2022/05/27 13:14:03;;;;;;;3.38;1.40;;;20.30;99.90;;;;;;5033359;28;20269;-32
2022/05/27 13:16:47;;;;;;;1.50;1.10;;;20.40;99.90;;;;;;5032113;28;20191;-32
2022/05/27 13:19:29;;;;;;;2.25;1.60;;;20.50;99.90;;;;;;5032055;28;20296;-31
2022/05/27 13:21:56;;;;;;;1.42;1.30;;;20.90;99.90;;;;;;5032160;28;20185;-31
2022/05/27 13:24:51;;;;;;;2.08;1.30;;;21.30;99.90;;;;;;5015534;28;20178;-32
2022/05/27 13:27:26;;;;;;;2.05;1.20;;;21.20;99.90;;;;;;5048453;28;20253;-31
2022/05/27 13:30:01;;;;;;;2.47;1.45;;;20.80;99.90;;;;;;5032027;28;20655;-31
2022/05/27 13:32:49;;;;;;;4.05;1.38;;;20.80;99.90;;;;;;5015460;28;20190;-32
2022/05/27 13:35:17;;;;;;;1.73;1.33;;;20.90;99.90;;;;;;5032487;28;20215;-31
2022/05/27 13:37:58;;;;;;;1.50;1.25;;;21.10;99.90;;;;;;5015198;28;20279;-32
2022/05/27 13:40:33;;;;;;;1.92;1.20;;;21.30;99.90;;;;;;5031568;28;20270;-32
2022/05/27 13:43:19;;;;;;;2.55;1.23;;;21.40;99.90;;;;;;5032942;28;20312;-32
2022/05/27 13:45:55;;;;;;;1.27;1.17;;;21.30;99.90;;;;;;5032974;28;20216;-31
2022/05/27 13:48:28;;;;;;;1.60;1.30;;;21.00;99.90;;;;;;5032819;28;20271;-32
2022/05/27 13:51:24;;;;;;;2.88;1.20;;;20.70;99.90;;;;;;5033275;28;20170;-32